Flight Track Log - Related Links

Times and Time Zones

All times are in EDT time to prevent confusion due to time zone crossing. See the N1944E flight status page for this flight to view local times or setup timezone preferences in your user account.

Time Position Orientation Groundspeed Altitude Reporting Facility
EDT Latitude Longitude Course Direction KTS MPH feet Rate Location/Type
Sat 10:40:00 AM 44.2849 -109.2588 219° Southwest  Level FlightAware Approximate
Sat 10:40:10 AM 44.2919 -109.2808 221° Southwest 143 165 13,300  Level Salt Lake Center
Sat 10:41:00 AM 44.2473 -109.3010 219° Southwest  Level FlightAware Approximate
Sat 10:41:12 AM 44.2567 -109.3272 223° Southwest 155 178 14,300  Level Salt Lake Center
Sat 10:42:00 AM 44.2108 -109.3449 222° Southwest  Level FlightAware Approximate
Sat 10:42:13 AM 44.2225 -109.3647 218° Southwest 158 182 15,200  Level Salt Lake Center
Sat 10:43:00 AM 44.1748 -109.3898 222° Southwest  Level FlightAware Approximate
Sat 10:43:15 AM 44.1875 -109.4008 216° Southwest 160 184 16,100  Level Salt Lake Center
Sat 10:44:00 AM 44.1364 -109.4303 216° Southwest  Level FlightAware Approximate
Sat 10:44:17 AM 44.1433 -109.4497 218° Southwest 169 194 16,000  Level Salt Lake Center
Sat 10:45:00 AM 44.0985 -109.4718 221° Southwest  Level FlightAware Approximate
Sat 10:45:18 AM 44.1014 -109.4944 217° Southwest 181 208 16,000  Level Salt Lake Center
Sat 10:46:20 AM 44.0544 -109.5506 221° Southwest 191 220 15,800 -48 Descending Salt Lake Center
Sat 10:47:22 AM 44.0153 -109.5978 221° Southwest 194 223 15,900 49 Climbing Salt Lake Center
Sat 10:48:23 AM 43.9767 -109.6433 220° Southwest 193 222 15,900  Level Salt Lake Center
Sat 10:49:25 AM 43.9303 -109.6953 219° Southwest 192 221 15,900  Level Salt Lake Center
Sat 10:50:27 AM 43.8878 -109.7367 215° Southwest 193 222 15,900  Level Salt Lake Center
Sat 10:51:29 AM 43.8414 -109.7792 213° Southwest 190 219 15,900  Level Salt Lake Center
Sat 10:52:30 AM 43.7989 -109.8211 215° Southwest 188 216 15,900  Level Salt Lake Center
Sat 10:53:32 AM 43.7567 -109.8656 217° Southwest 189 217 15,900  Level Salt Lake Center
Sat 10:54:34 AM 43.7136 -109.9089 216° Southwest 191 220 15,900  Level Salt Lake Center
Sat 10:55:36 AM 43.6733 -109.9528 218° Southwest 186 214 15,900 -49 Level Salt Lake Center
Sat 10:56:37 AM 43.6239 -110.0058 218° Southwest 188 216 15,800  Descending Salt Lake Center
Sat 10:57:39 AM 43.5925 -110.0608 232° Southwest 183 211 15,900 48 Climbing Salt Lake Center
Sat 10:58:41 AM 43.5600 -110.1189 232° Southwest 189 217 15,900  Level Salt Lake Center
Sat 10:59:43 AM 43.5297 -110.1767 234° Southwest 186 214 15,900 97 Level Salt Lake Center
Sat 11:00:45 AM 43.4981 -110.2322 232° Southwest 185 213 16,100 97 Climbing Salt Lake Center
Sat 11:01:47 AM 43.4667 -110.2878 232° Southwest 184 212 16,100  Level Salt Lake Center
Sat 11:02:49 AM 43.4331 -110.3425 230° Southwest 185 213 16,100 -194 Level Salt Lake Center
Sat 11:03:51 AM 43.3981 -110.3975 229° Southwest 188 216 15,700 -532 Descending Salt Lake Center
Sat 11:04:53 AM 43.3533 -110.4675 229° Southwest 200 230 15,000 -774 Descending Salt Lake Center
Sat 11:05:55 AM 43.3142 -110.5272 228° Southwest 206 237 14,100 -484 Descending Salt Lake Center
Sat 11:06:57 AM 43.2783 -110.5856 230° Southwest 201 231 14,000 -290 Descending Salt Lake Center
Sat 11:07:59 AM 43.2444 -110.6403 230° Southwest 189 217 13,500 -484 Descending Salt Lake Center
Sat 11:09:01 AM 43.2089 -110.6994 231° Southwest 199 229 13,000 -195 Descending Salt Lake Center
Sat 11:10:02 AM 43.1781 -110.7508 231° Southwest 176 203 13,100 98 Climbing Salt Lake Center

Login

Don't have an account? Register now (free) for customized features, flight alerts, and more!